Terminal Aerodrome Forecast
Issued by NWS Paducah, KY

Home | Current Version | Previous Version | Graphics & Text | Print | Product List | Glossary On
Versions: 1 2 3 4 5 6 7 8 9 10 11 12 13 14 15 16 17 18 19 20
000
FTUS43 KPAH 191604 AAD
TAFPAH
TAF AMD
KPAH 191604Z 1916/2012 VRB03KT P6SM SCT018
      TEMPO 1916/1919 BKN018
     FM191900 24004KT P6SM BKN035
     FM200000 19003KT P6SM SKC=

USA.gov is the U.S. government's official web portal to all federal, state and local government web resources and services.